sensor_id;sensor_type;location;lat;lon;timestamp;pressure;altitude;pressure_sealevel;temperature;humidity
50852;BME280;43953;45.508;-122.806;2023-04-01T00:00:26;100715.88;;;11.86;60.57
50852;BME280;43953;45.508;-122.806;2023-04-01T00:01:00;100716.28;;;11.82;60.51
50852;BME280;43953;45.508;-122.806;2023-04-01T00:01:32;100710.94;;;11.76;60.58
50852;BME280;43953;45.508;-122.806;2023-04-01T00:02:03;100709.72;;;11.72;60.40
50852;BME280;43953;45.508;-122.806;2023-04-01T00:02:35;100710.75;;;11.71;60.76
50852;BME280;43953;45.508;-122.806;2023-04-01T00:03:07;100712.84;;;11.69;60.70
50852;BME280;43953;45.508;-122.806;2023-04-01T00:03:39;100711.81;;;11.70;60.63
50852;BME280;43953;45.508;-122.806;2023-04-01T00:04:11;100705.59;;;11.69;60.53
50852;BME280;43953;45.508;-122.806;2023-04-01T00:04:43;100703.50;;;11.71;60.83
50852;BME280;43953;45.508;-122.806;2023-04-01T00:05:15;100701.41;;;11.73;60.75
50852;BME280;43953;45.508;-122.806;2023-04-01T00:05:47;100705.34;;;11.77;60.85
50852;BME280;43953;45.508;-122.806;2023-04-01T00:06:19;100704.91;;;11.80;60.76
50852;BME280;43953;45.508;-122.806;2023-04-01T00:06:51;100698.47;;;11.81;60.67
50852;BME280;43953;45.508;-122.806;2023-04-01T00:07:23;100706.13;;;11.84;60.98
50852;BME280;43953;45.508;-122.806;2023-04-01T00:07:55;100705.09;;;11.86;60.90
50852;BME280;43953;45.508;-122.806;2023-04-01T00:08:27;100696.38;;;11.83;61.08
50852;BME280;43953;45.508;-122.806;2023-04-01T00:08:59;100703.41;;;11.84;60.79
50852;BME280;43953;45.508;-122.806;2023-04-01T00:09:31;100695.53;;;11.83;60.96
50852;BME280;43953;45.508;-122.806;2023-04-01T00:10:06;100699.06;;;11.83;60.85
50852;BME280;43953;45.508;-122.806;2023-04-01T00:10:38;100692.00;;;11.82;60.60
50852;BME280;43953;45.508;-122.806;2023-04-01T00:11:10;100690.38;;;11.81;60.89
50852;BME280;43953;45.508;-122.806;2023-04-01T00:11:43;100693.06;;;11.81;60.69
50852;BME280;43953;45.508;-122.806;2023-04-01T00:12:16;100694.69;;;11.82;60.98
50852;BME280;43953;45.508;-122.806;2023-04-01T00:12:48;100689.75;;;11.79;61.26
50852;BME280;43953;45.508;-122.806;2023-04-01T00:13:20;100690.03;;;11.71;61.22
50852;BME280;43953;45.508;-122.806;2023-04-01T00:13:53;100694.56;;;11.71;60.70
50852;BME280;43953;45.508;-122.806;2023-04-01T00:14:24;100689.19;;;11.71;61.10
50852;BME280;43953;45.508;-122.806;2023-04-01T00:14:56;100687.34;;;11.71;61.22
50852;BME280;43953;45.508;-122.806;2023-04-01T00:15:28;100688.97;;;11.72;61.27
50852;BME280;43953;45.508;-122.806;2023-04-01T00:16:00;100689.59;;;11.74;61.04
50852;BME280;43953;45.508;-122.806;2023-04-01T00:16:33;100681.06;;;11.77;61.34
50852;BME280;43953;45.508;-122.806;2023-04-01T00:17:04;100678.13;;;11.79;61.57
50852;BME280;43953;45.508;-122.806;2023-04-01T00:17:36;100678.53;;;11.82;61.40
50852;BME280;43953;45.508;-122.806;2023-04-01T00:18:08;100687.22;;;11.84;61.11
50852;BME280;43953;45.508;-122.806;2023-04-01T00:18:40;100675.22;;;11.87;61.26
50852;BME280;43953;45.508;-122.806;2023-04-01T00:19:12;100682.47;;;11.87;60.95
50852;BME280;43953;45.508;-122.806;2023-04-01T00:19:44;100685.19;;;11.87;60.88
50852;BME280;43953;45.508;-122.806;2023-04-01T00:20:15;100678.13;;;11.86;61.35
50852;BME280;43953;45.508;-122.806;2023-04-01T00:20:49;100683.50;;;11.86;61.35
50852;BME280;43953;45.508;-122.806;2023-04-01T00:21:22;100684.13;;;11.88;61.45
50852;BME280;43953;45.508;-122.806;2023-04-01T00:21:54;100683.06;;;11.89;61.37
50852;BME280;43953;45.508;-122.806;2023-04-01T00:22:25;100680.38;;;11.89;61.15
50852;BME280;43953;45.508;-122.806;2023-04-01T00:22:58;100676.03;;;11.88;61.26
50852;BME280;43953;45.508;-122.806;2023-04-01T00:23:29;100670.63;;;11.88;61.42
50852;BME280;43953;45.508;-122.806;2023-04-01T00:24:01;100674.97;;;11.89;61.55
50852;BME280;43953;45.508;-122.806;2023-04-01T00:24:33;100677.47;;;11.90;61.50
50852;BME280;43953;45.508;-122.806;2023-04-01T00:25:05;100673.94;;;11.90;61.35
50852;BME280;43953;45.508;-122.806;2023-04-01T00:25:37;100669.38;;;11.90;61.55
50852;BME280;43953;45.508;-122.806;2023-04-01T00:26:09;100671.84;;;11.92;61.27
50852;BME280;43953;45.508;-122.806;2023-04-01T00:26:40;100670.19;;;11.91;61.34
50852;BME280;43953;45.508;-122.806;2023-04-01T00:27:13;100680.38;;;11.89;61.72
50852;BME280;43953;45.508;-122.806;2023-04-01T00:27:45;100675.66;;;11.77;61.95
50852;BME280;43953;45.508;-122.806;2023-04-01T00:28:18;100677.50;;;11.77;61.80
50852;BME280;43953;45.508;-122.806;2023-04-01T00:28:50;100670.72;;;11.74;61.49
50852;BME280;43953;45.508;-122.806;2023-04-01T00:29:22;100675.25;;;11.74;61.66
50852;BME280;43953;45.508;-122.806;2023-04-01T00:29:55;100670.47;;;11.76;61.67
50852;BME280;43953;45.508;-122.806;2023-04-01T00:30:27;100674.81;;;11.77;62.00
50852;BME280;43953;45.508;-122.806;2023-04-01T00:31:04;100666.53;;;11.78;61.85
50852;BME280;43953;45.508;-122.806;2023-04-01T00:31:36;100661.13;;;11.78;61.85
50852;BME280;43953;45.508;-122.806;2023-04-01T00:32:07;100664.66;;;11.79;61.73
50852;BME280;43953;45.508;-122.806;2023-04-01T00:32:39;100666.91;;;11.82;61.74
50852;BME280;43953;45.508;-122.806;2023-04-01T00:33:11;100670.22;;;11.84;61.71
50852;BME280;43953;45.508;-122.806;2023-04-01T00:33:43;100667.31;;;11.86;61.76
50852;BME280;43953;45.508;-122.806;2023-04-01T00:34:15;100666.88;;;11.89;61.63
50852;BME280;43953;45.508;-122.806;2023-04-01T00:34:50;100663.75;;;11.92;61.64
50852;BME280;43953;45.508;-122.806;2023-04-01T00:35:22;100666.44;;;11.92;61.34
50852;BME280;43953;45.508;-122.806;2023-04-01T00:35:54;100662.34;;;11.89;61.00
50852;BME280;43953;45.508;-122.806;2023-04-01T00:36:26;100667.13;;;11.80;61.11
50852;BME280;43953;45.508;-122.806;2023-04-01T00:36:58;100660.31;;;11.78;61.29
50852;BME280;43953;45.508;-122.806;2023-04-01T00:37:30;100660.75;;;11.75;61.07
50852;BME280;43953;45.508;-122.806;2023-04-01T00:38:03;100657.88;;;11.70;61.34
50852;BME280;43953;45.508;-122.806;2023-04-01T00:38:35;100659.94;;;11.68;61.58
50852;BME280;43953;45.508;-122.806;2023-04-01T00:39:07;100653.72;;;11.67;61.43
50852;BME280;43953;45.508;-122.806;2023-04-01T00:39:39;100650.22;;;11.67;61.34
50852;BME280;43953;45.508;-122.806;2023-04-01T00:40:32;100651.03;;;11.67;61.86
50852;BME280;43953;45.508;-122.806;2023-04-01T00:41:05;100647.28;;;11.68;62.24
50852;BME280;43953;45.508;-122.806;2023-04-01T00:41:37;100654.13;;;11.71;61.66
50852;BME280;43953;45.508;-122.806;2023-04-01T00:42:09;100649.13;;;11.74;61.90
50852;BME280;43953;45.508;-122.806;2023-04-01T00:42:41;100648.69;;;11.77;61.41
50852;BME280;43953;45.508;-122.806;2023-04-01T00:43:16;100646.59;;;11.79;61.82
50852;BME280;43953;45.508;-122.806;2023-04-01T00:43:51;100637.47;;;11.80;62.03
50852;BME280;43953;45.508;-122.806;2023-04-01T00:44:26;100638.50;;;11.79;61.84
50852;BME280;43953;45.508;-122.806;2023-04-01T00:44:58;100648.25;;;11.80;61.37
50852;BME280;43953;45.508;-122.806;2023-04-01T00:45:49;100647.03;;;11.76;61.62
50852;BME280;43953;45.508;-122.806;2023-04-01T00:46:21;100641.03;;;11.74;61.45
50852;BME280;43953;45.508;-122.806;2023-04-01T00:46:56;100637.09;;;11.70;61.38
50852;BME280;43953;45.508;-122.806;2023-04-01T00:47:27;100638.34;;;11.74;61.41
50852;BME280;43953;45.508;-122.806;2023-04-01T00:48:04;100641.63;;;11.76;61.86
50852;BME280;43953;45.508;-122.806;2023-04-01T00:48:41;100637.06;;;11.77;61.87
50852;BME280;43953;45.508;-122.806;2023-04-01T00:49:16;100637.06;;;11.77;61.78
50852;BME280;43953;45.508;-122.806;2023-04-01T00:49:50;100636.22;;;11.76;61.57
50852;BME280;43953;45.508;-122.806;2023-04-01T00:50:24;100636.22;;;11.76;61.68
50852;BME280;43953;45.508;-122.806;2023-04-01T00:51:01;100630.84;;;11.76;61.91
50852;BME280;43953;45.508;-122.806;2023-04-01T00:51:34;100635.66;;;11.74;61.99
50852;BME280;43953;45.508;-122.806;2023-04-01T00:52:08;100628.38;;;11.75;62.08
50852;BME280;43953;45.508;-122.806;2023-04-01T00:52:42;100625.44;;;11.76;62.13
50852;BME280;43953;45.508;-122.806;2023-04-01T00:53:15;100634.16;;;11.78;61.83
50852;BME280;43953;45.508;-122.806;2023-04-01T00:53:50;100625.81;;;11.80;62.02
50852;BME280;43953;45.508;-122.806;2023-04-01T00:54:24;100620.03;;;11.76;61.81
50852;BME280;43953;45.508;-122.806;2023-04-01T00:54:59;100617.59;;;11.75;61.78
50852;BME280;43953;45.508;-122.806;2023-04-01T00:55:35;100631.28;;;11.73;61.96
50852;BME280;43953;45.508;-122.806;2023-04-01T00:56:32;100621.81;;;11.64;62.16
50852;BME280;43953;45.508;-122.806;2023-04-01T00:57:25;100615.63;;;11.57;62.33
50852;BME280;43953;45.508;-122.806;2023-04-01T00:58:02;100618.78;;;11.54;62.62
50852;BME280;43953;45.508;-122.806;2023-04-01T00:58:38;100615.28;;;11.47;62.88
50852;BME280;43953;45.508;-122.806;2023-04-01T00:59:15;100621.09;;;11.44;62.47
50852;BME280;43953;45.508;-122.806;2023-04-01T00:59:49;100615.72;;;11.44;62.57
50852;BME280;43953;45.508;-122.806;2023-04-01T01:00:23;100619.22;;;11.44;63.10
50852;BME280;43953;45.508;-122.806;2023-04-01T01:00:58;100617.38;;;11.45;62.66
50852;BME280;43953;45.508;-122.806;2023-04-01T01:01:31;100614.06;;;11.43;63.24
50852;BME280;43953;45.508;-122.806;2023-04-01T01:02:07;100614.88;;;11.43;62.74
50852;BME280;43953;45.508;-122.806;2023-04-01T01:02:45;100611.13;;;11.44;63.22
50852;BME280;43953;45.508;-122.806;2023-04-01T01:03:17;100604.50;;;11.47;62.78
50852;BME280;43953;45.508;-122.806;2023-04-01T01:03:49;100610.69;;;11.47;62.89
50852;BME280;43953;45.508;-122.806;2023-04-01T01:04:57;100609.09;;;11.39;63.24
50852;BME280;43953;45.508;-122.806;2023-04-01T01:08:01;100600.84;;;11.34;63.75
50852;BME280;43953;45.508;-122.806;2023-04-01T01:08:41;100605.19;;;11.35;63.41
50852;BME280;43953;45.508;-122.806;2023-04-01T01:09:30;100607.44;;;11.38;63.62
50852;BME280;43953;45.508;-122.806;2023-04-01T01:10:17;100595.63;;;11.39;63.63
50852;BME280;43953;45.508;-122.806;2023-04-01T01:10:50;100601.59;;;11.42;63.09
50852;BME280;43953;45.508;-122.806;2023-04-01T01:11:48;100600.34;;;11.44;63.00
50852;BME280;43953;45.508;-122.806;2023-04-01T01:13:17;100610.94;;;11.46;62.99
50852;BME280;43953;45.508;-122.806;2023-04-01T01:16:58;100600.78;;;11.48;62.45
50852;BME280;43953;45.508;-122.806;2023-04-01T01:18:53;100595.19;;;11.43;62.42
50852;BME280;43953;45.508;-122.806;2023-04-01T01:19:57;100595.81;;;11.45;62.53
50852;BME280;43953;45.508;-122.806;2023-04-01T01:21:31;100592.88;;;11.46;62.19
50852;BME280;43953;45.508;-122.806;2023-04-01T01:26:24;100575.78;;;11.59;61.26
50852;BME280;43953;45.508;-122.806;2023-04-01T01:27:38;100578.47;;;11.59;61.17
50852;BME280;43953;45.508;-122.806;2023-04-01T01:28:35;100580.34;;;11.58;61.56
50852;BME280;43953;45.508;-122.806;2023-04-01T01:29:39;100571.66;;;11.56;61.73
50852;BME280;43953;45.508;-122.806;2023-04-01T01:31:16;100584.34;;;11.49;61.91
50852;BME280;43953;45.508;-122.806;2023-04-01T01:35:54;100562.84;;;11.43;61.69
50852;BME280;43953;45.508;-122.806;2023-04-01T01:36:31;100576.31;;;11.43;62.08
50852;BME280;43953;45.508;-122.806;2023-04-01T01:37:10;100565.53;;;11.43;61.91
50852;BME280;43953;45.508;-122.806;2023-04-01T01:37:46;100565.53;;;11.43;62.18
50852;BME280;43953;45.508;-122.806;2023-04-01T01:38:30;100565.53;;;11.43;62.31
50852;BME280;43953;45.508;-122.806;2023-04-01T01:39:05;100572.56;;;11.44;61.82
50852;BME280;43953;45.508;-122.806;2023-04-01T01:39:39;100565.09;;;11.46;61.79
50852;BME280;43953;45.508;-122.806;2023-04-01T01:40:13;100561.78;;;11.44;61.77
50852;BME280;43953;45.508;-122.806;2023-04-01T01:40:49;100567.84;;;11.39;62.08
50852;BME280;43953;45.508;-122.806;2023-04-01T01:41:26;100564.75;;;11.35;62.04
50852;BME280;43953;45.508;-122.806;2023-04-01T01:42:02;100559.78;;;11.32;62.14
50852;BME280;43953;45.508;-122.806;2023-04-01T01:42:38;100563.78;;;11.30;62.53
50852;BME280;43953;45.508;-122.806;2023-04-01T01:43:14;100560.66;;;11.26;62.32
50852;BME280;43953;45.508;-122.806;2023-04-01T01:43:49;100560.66;;;11.26;62.61
50852;BME280;43953;45.508;-122.806;2023-04-01T01:44:23;100563.34;;;11.26;62.49
50852;BME280;43953;45.508;-122.806;2023-04-01T01:44:59;100559.63;;;11.27;62.56
50852;BME280;43953;45.508;-122.806;2023-04-01T01:45:34;100554.25;;;11.27;62.94
50852;BME280;43953;45.508;-122.806;2023-04-01T01:46:11;100560.66;;;11.26;62.88
50852;BME280;43953;45.508;-122.806;2023-04-01T01:46:45;100559.63;;;11.27;62.99
50852;BME280;43953;45.508;-122.806;2023-04-01T01:47:19;100557.97;;;11.26;62.87
50852;BME280;43953;45.508;-122.806;2023-04-01T01:47:52;100554.84;;;11.29;62.88
50852;BME280;43953;45.508;-122.806;2023-04-01T01:48:26;100560.22;;;11.29;62.80
50852;BME280;43953;45.508;-122.806;2023-04-01T01:49:00;100564.16;;;11.27;62.95
50852;BME280;43953;45.508;-122.806;2023-04-01T01:49:34;100558.59;;;11.28;62.83
50852;BME280;43953;45.508;-122.806;2023-04-01T01:50:08;100561.06;;;11.30;62.98
50852;BME280;43953;45.508;-122.806;2023-04-01T01:50:41;100560.84;;;11.31;63.18
50852;BME280;43953;45.508;-122.806;2023-04-01T01:51:14;100547.97;;;11.33;62.91
50852;BME280;43953;45.508;-122.806;2023-04-01T01:51:46;100548.56;;;11.35;63.33
50852;BME280;43953;45.508;-122.806;2023-04-01T01:52:19;100556.44;;;11.37;63.25
50852;BME280;43953;45.508;-122.806;2023-04-01T01:52:51;100552.13;;;11.36;62.91
50852;BME280;43953;45.508;-122.806;2023-04-01T01:53:22;100552.75;;;11.31;63.07
50852;BME280;43953;45.508;-122.806;2023-04-01T01:53:54;100553.19;;;11.28;63.17
50852;BME280;43953;45.508;-122.806;2023-04-01T01:54:26;100556.31;;;11.25;63.44
50852;BME280;43953;45.508;-122.806;2023-04-01T01:54:58;100560.06;;;11.24;63.51
50852;BME280;43953;45.508;-122.806;2023-04-01T01:55:33;100558.41;;;11.23;63.21
50852;BME280;43953;45.508;-122.806;2023-04-01T01:56:05;100552.00;;;11.24;63.28
50852;BME280;43953;45.508;-122.806;2023-04-01T01:56:38;100554.69;;;11.24;63.59
50852;BME280;43953;45.508;-122.806;2023-04-01T01:57:10;100556.31;;;11.25;63.50
50852;BME280;43953;45.508;-122.806;2023-04-01T01:57:44;100556.09;;;11.27;63.35
50852;BME280;43953;45.508;-122.806;2023-04-01T01:59:03;100544.91;;;11.30;63.53
50852;BME280;43953;45.508;-122.806;2023-04-01T01:59:38;100543.63;;;11.32;63.47
50852;BME280;43953;45.508;-122.806;2023-04-01T02:00:12;100539.91;;;11.33;63.13
50852;BME280;43953;45.508;-122.806;2023-04-01T02:00:50;100536.59;;;11.31;63.03
50852;BME280;43953;45.508;-122.806;2023-04-01T02:01:27;100535.16;;;11.29;62.97
50852;BME280;43953;45.508;-122.806;2023-04-01T02:02:00;100534.31;;;11.28;63.46
50852;BME280;43953;45.508;-122.806;2023-04-01T02:02:44;100529.13;;;11.27;63.15
50852;BME280;43953;45.508;-122.806;2023-04-01T02:03:17;100525.19;;;11.29;63.12
50852;BME280;43953;45.508;-122.806;2023-04-01T02:03:52;100525.19;;;11.29;63.32
50852;BME280;43953;45.508;-122.806;2023-04-01T02:04:25;100523.34;;;11.30;63.23
50852;BME280;43953;45.508;-122.806;2023-04-01T02:04:58;100522.50;;;11.29;63.14
50852;BME280;43953;45.508;-122.806;2023-04-01T02:05:31;100527.88;;;11.29;63.16
50852;BME280;43953;45.508;-122.806;2023-04-01T02:06:07;100523.75;;;11.27;63.54
50852;BME280;43953;45.508;-122.806;2023-04-01T02:06:43;100523.38;;;11.23;63.37
50852;BME280;43953;45.508;-122.806;2023-04-01T02:07:25;100514.25;;;11.24;63.35
50852;BME280;43953;45.508;-122.806;2023-04-01T02:08:06;100515.91;;;11.25;63.14
50852;BME280;43953;45.508;-122.806;2023-04-01T02:08:49;100518.78;;;11.24;63.18
50852;BME280;43953;45.508;-122.806;2023-04-01T02:09:23;100516.53;;;11.21;63.32
50852;BME280;43953;45.508;-122.806;2023-04-01T02:09:54;100512.00;;;11.21;63.33
50852;BME280;43953;45.508;-122.806;2023-04-01T02:10:29;100516.94;;;11.24;63.30
50852;BME280;43953;45.508;-122.806;2023-04-01T02:11:06;100517.53;;;11.26;63.44
50852;BME280;43953;45.508;-122.806;2023-04-01T02:11:47;100518.16;;;11.28;63.21
50852;BME280;43953;45.508;-122.806;2023-04-01T02:12:22;100517.94;;;11.30;63.05
50852;BME280;43953;45.508;-122.806;2023-04-01T02:12:58;100504.47;;;11.30;63.24
50852;BME280;43953;45.508;-122.806;2023-04-01T02:14:56;100507.00;;;11.25;63.73
50852;BME280;43953;45.508;-122.806;2023-04-01T02:15:31;100513.63;;;11.22;63.51
50852;BME280;43953;45.508;-122.806;2023-04-01T02:16:13;100510.94;;;11.22;63.38
50852;BME280;43953;45.508;-122.806;2023-04-01T02:16:51;100512.81;;;11.22;63.60
50852;BME280;43953;45.508;-122.806;2023-04-01T02:17:29;100506.63;;;11.14;63.50
50852;BME280;43953;45.508;-122.806;2023-04-01T02:18:01;100506.25;;;11.11;63.77
50852;BME280;43953;45.508;-122.806;2023-04-01T02:18:35;100504.81;;;11.08;63.87
50852;BME280;43953;45.508;-122.806;2023-04-01T02:19:10;100504.41;;;11.05;63.67
50852;BME280;43953;45.508;-122.806;2023-04-01T02:20:24;100509.38;;;11.08;63.98
50852;BME280;43953;45.508;-122.806;2023-04-01T02:20:59;100500.25;;;11.09;63.94
50852;BME280;43953;45.508;-122.806;2023-04-01T02:21:32;100507.88;;;11.12;63.90
50852;BME280;43953;45.508;-122.806;2023-04-01T02:22:12;100504.75;;;11.15;63.79
50852;BME280;43953;45.508;-122.806;2023-04-01T02:22:48;100510.75;;;11.17;64.00
50852;BME280;43953;45.508;-122.806;2023-04-01T02:23:21;100506.19;;;11.18;63.68
50852;BME280;43953;45.508;-122.806;2023-04-01T02:23:53;100502.69;;;11.17;63.56
50852;BME280;43953;45.508;-122.806;2023-04-01T02:24:31;100508.88;;;11.18;63.84
50852;BME280;43953;45.508;-122.806;2023-04-01T02:25:10;100511.38;;;11.19;63.86
50852;BME280;43953;45.508;-122.806;2023-04-01T02:25:43;100508.69;;;11.19;63.66
50852;BME280;43953;45.508;-122.806;2023-04-01T02:26:16;100499.97;;;11.17;63.52
50852;BME280;43953;45.508;-122.806;2023-04-01T02:26:50;100505.59;;;11.15;63.90
50852;BME280;43953;45.508;-122.806;2023-04-01T02:27:23;100496.91;;;11.13;63.47
50852;BME280;43953;45.508;-122.806;2023-04-01T02:27:57;100492.34;;;11.14;63.52
50852;BME280;43953;45.508;-122.806;2023-04-01T02:28:30;100500.41;;;11.14;63.76
50852;BME280;43953;45.508;-122.806;2023-04-01T02:29:04;100506.88;;;11.13;63.64
50852;BME280;43953;45.508;-122.806;2023-04-01T02:29:37;100498.59;;;11.08;63.48
50852;BME280;43953;45.508;-122.806;2023-04-01T02:30:10;100505.03;;;11.07;63.69
50852;BME280;43953;45.508;-122.806;2023-04-01T02:30:43;100511.44;;;11.06;63.78
50852;BME280;43953;45.508;-122.806;2023-04-01T02:31:16;100489.91;;;11.06;63.62
50852;BME280;43953;45.508;-122.806;2023-04-01T02:31:49;100504.00;;;11.08;63.91
50852;BME280;43953;45.508;-122.806;2023-04-01T02:32:21;100497.53;;;11.09;63.56
50852;BME280;43953;45.508;-122.806;2023-04-01T02:32:55;100501.09;;;11.09;63.85
50852;BME280;43953;45.508;-122.806;2023-04-01T02:33:28;100499.81;;;11.12;63.70
50852;BME280;43953;45.508;-122.806;2023-04-01T02:34:02;100495.84;;;11.14;63.47
50852;BME280;43953;45.508;-122.806;2023-04-01T02:34:34;100495.66;;;11.16;63.19
50852;BME280;43953;45.508;-122.806;2023-04-01T02:35:09;100497.28;;;11.17;62.99
50852;BME280;43953;45.508;-122.806;2023-04-01T02:35:41;100492.28;;;11.21;63.24
50852;BME280;43953;45.508;-122.806;2023-04-01T02:36:14;100491.47;;;11.20;63.27
50852;BME280;43953;45.508;-122.806;2023-04-01T02:36:48;100490.88;;;11.18;62.82
50852;BME280;43953;45.508;-122.806;2023-04-01T02:37:21;100484.88;;;11.16;62.92
50852;BME280;43953;45.508;-122.806;2023-04-01T02:37:54;100483.19;;;11.15;63.12
50852;BME280;43953;45.508;-122.806;2023-04-01T02:38:26;100477.81;;;11.15;63.08
50852;BME280;43953;45.508;-122.806;2023-04-01T02:38:58;100475.34;;;11.13;63.15
50852;BME280;43953;45.508;-122.806;2023-04-01T02:39:33;100479.69;;;11.14;63.36
50852;BME280;43953;45.508;-122.806;2023-04-01T02:40:06;100483.81;;;11.17;63.10
50852;BME280;43953;45.508;-122.806;2023-04-01T02:40:49;100478.66;;;11.15;63.07
50852;BME280;43953;45.508;-122.806;2023-04-01T02:41:22;100479.91;;;11.13;63.12
50852;BME280;43953;45.508;-122.806;2023-04-01T02:41:54;100476.59;;;11.11;63.27
50852;BME280;43953;45.508;-122.806;2023-04-01T02:42:25;100486.31;;;11.12;63.47
50852;BME280;43953;45.508;-122.806;2023-04-01T02:42:57;100482.63;;;11.13;63.50
50852;BME280;43953;45.508;-122.806;2023-04-01T02:43:29;100479.91;;;11.13;63.49
50852;BME280;43953;45.508;-122.806;2023-04-01T02:44:01;100479.09;;;11.12;63.45
50852;BME280;43953;45.508;-122.806;2023-04-01T02:44:32;100478.25;;;11.12;63.11
50852;BME280;43953;45.508;-122.806;2023-04-01T02:45:05;100481.16;;;11.10;63.43
50852;BME280;43953;45.508;-122.806;2023-04-01T02:45:37;100477.88;;;11.08;62.89
50852;BME280;43953;45.508;-122.806;2023-04-01T02:46:09;100472.91;;;11.05;62.97
50852;BME280;43953;45.508;-122.806;2023-04-01T02:46:41;100477.47;;;11.05;63.31
50852;BME280;43953;45.508;-122.806;2023-04-01T02:47:13;100473.16;;;11.04;63.60
50852;BME280;43953;45.508;-122.806;2023-04-01T02:47:44;100475.03;;;11.03;63.32
50852;BME280;43953;45.508;-122.806;2023-04-01T02:48:16;100476.28;;;11.01;63.17
50852;BME280;43953;45.508;-122.806;2023-04-01T02:48:48;100478.34;;;10.99;63.31
50852;BME280;43953;45.508;-122.806;2023-04-01T02:49:19;100483.50;;;11.00;63.57
50852;BME280;43953;45.508;-122.806;2023-04-01T02:49:51;100480.00;;;11.00;63.30
50852;BME280;43953;45.508;-122.806;2023-04-01T02:50:28;100473.34;;;11.02;63.51
50852;BME280;43953;45.508;-122.806;2023-04-01T02:51:01;100483.91;;;11.04;63.42
50852;BME280;43953;45.508;-122.806;2023-04-01T02:51:33;100479.97;;;11.06;63.58
50852;BME280;43953;45.508;-122.806;2023-04-01T02:52:05;100477.88;;;11.08;63.37
50852;BME280;43953;45.508;-122.806;2023-04-01T02:52:37;100474.97;;;11.10;63.29
50852;BME280;43953;45.508;-122.806;2023-04-01T02:53:09;100472.03;;;11.11;63.52
50852;BME280;43953;45.508;-122.806;2023-04-01T02:53:41;100467.25;;;11.13;63.37
50852;BME280;43953;45.508;-122.806;2023-04-01T02:54:13;100470.78;;;11.14;63.34
50852;BME280;43953;45.508;-122.806;2023-04-01T02:54:44;100470.56;;;11.15;63.00
50852;BME280;43953;45.508;-122.806;2023-04-01T02:55:16;100466.00;;;11.16;63.19
50852;BME280;43953;45.508;-122.806;2023-04-01T02:55:48;100467.44;;;11.19;62.75
50852;BME280;43953;45.508;-122.806;2023-04-01T02:56:21;100467.44;;;11.19;62.96
50852;BME280;43953;45.508;-122.806;2023-04-01T02:56:53;100469.31;;;11.18;62.99
50852;BME280;43953;45.508;-122.806;2023-04-01T02:57:25;100465.38;;;11.14;63.06
50852;BME280;43953;45.508;-122.806;2023-04-01T02:57:57;100463.13;;;11.11;63.17
50852;BME280;43953;45.508;-122.806;2023-04-01T02:58:29;100463.38;;;11.09;63.39
50852;BME280;43953;45.508;-122.806;2023-04-01T02:59:01;100460.88;;;11.08;63.20
50852;BME280;43953;45.508;-122.806;2023-04-01T02:59:33;100462.94;;;11.06;63.12
50852;BME280;43953;45.508;-122.806;2023-04-01T03:00:05;100460.88;;;11.08;63.41
50852;BME280;43953;45.508;-122.806;2023-04-01T03:00:42;100459.81;;;11.09;63.37
50852;BME280;43953;45.508;-122.806;2023-04-01T03:01:14;100460.66;;;11.09;63.59
50852;BME280;43953;45.508;-122.806;2023-04-01T03:01:45;100465.22;;;11.09;63.22
50852;BME280;43953;45.508;-122.806;2023-04-01T03:02:17;100456.53;;;11.07;63.47
50852;BME280;43953;45.508;-122.806;2023-04-01T03:02:49;100451.59;;;11.04;63.22
50852;BME280;43953;45.508;-122.806;2023-04-01T03:03:21;100457.56;;;11.06;63.50
50852;BME280;43953;45.508;-122.806;2023-04-01T03:03:52;100466.25;;;11.08;63.20
50852;BME280;43953;45.508;-122.806;2023-04-01T03:04:24;100452.78;;;11.08;63.56
50852;BME280;43953;45.508;-122.806;2023-04-01T03:04:56;100460.66;;;11.09;63.20
50852;BME280;43953;45.508;-122.806;2023-04-01T03:05:28;100454.22;;;11.10;63.50
50852;BME280;43953;45.508;-122.806;2023-04-01T03:06:14;100456.69;;;11.12;63.24
50852;BME280;43953;45.508;-122.806;2023-04-01T03:06:46;100456.69;;;11.12;63.49
50852;BME280;43953;45.508;-122.806;2023-04-01T03:07:18;100445.91;;;11.12;63.47
50852;BME280;43953;45.508;-122.806;2023-04-01T03:07:49;100451.28;;;11.12;63.22
50852;BME280;43953;45.508;-122.806;2023-04-01T03:08:21;100453.63;;;11.08;63.33
50852;BME280;43953;45.508;-122.806;2023-04-01T03:08:53;100453.41;;;11.10;63.47
50852;BME280;43953;45.508;-122.806;2023-04-01T03:09:25;100449.66;;;11.11;63.27
50852;BME280;43953;45.508;-122.806;2023-04-01T03:09:57;100452.34;;;11.11;63.48
50852;BME280;43953;45.508;-122.806;2023-04-01T03:10:28;100449.66;;;11.11;63.63
50852;BME280;43953;45.508;-122.806;2023-04-01T03:11:00;100458.78;;;11.10;63.44
50852;BME280;43953;45.508;-122.806;2023-04-01T03:11:32;100450.72;;;11.10;63.30
50852;BME280;43953;45.508;-122.806;2023-04-01T03:12:04;100443.66;;;11.09;63.36
50852;BME280;43953;45.508;-122.806;2023-04-01T03:12:36;100453.41;;;11.10;63.84
50852;BME280;43953;45.508;-122.806;2023-04-01T03:13:07;100445.91;;;11.12;63.61
50852;BME280;43953;45.508;-122.806;2023-04-01T03:13:39;100449.22;;;11.14;63.63
50852;BME280;43953;45.508;-122.806;2023-04-01T03:14:11;100458.34;;;11.13;63.73
50852;BME280;43953;45.508;-122.806;2023-04-01T03:14:42;100451.91;;;11.14;63.28